createdAt,value
2023-02-01T00:00:05.766Z,5.67
2023-02-01T00:01:05.754Z,5.70
2023-02-01T00:02:05.744Z,5.70
2023-02-01T00:03:05.732Z,5.70
2023-02-01T00:04:05.716Z,5.70
2023-02-01T00:05:05.712Z,5.73
2023-02-01T00:06:05.731Z,5.75
2023-02-01T00:07:05.689Z,5.75
2023-02-01T00:08:05.692Z,5.73
2023-02-01T00:09:05.661Z,5.75
2023-02-01T00:10:05.659Z,5.70
2023-02-01T00:11:05.647Z,5.69
2023-02-01T00:12:05.633Z,5.69
2023-02-01T00:13:05.616Z,5.70
2023-02-01T00:14:05.612Z,5.70
2023-02-01T00:15:05.650Z,5.69
2023-02-01T00:16:05.672Z,5.67
2023-02-01T00:17:05.594Z,5.69
2023-02-01T00:18:05.561Z,5.67
2023-02-01T00:19:05.561Z,5.67
2023-02-01T00:20:05.594Z,5.66
2023-02-01T00:21:05.571Z,5.66
2023-02-01T00:22:05.520Z,5.65
2023-02-01T00:23:05.521Z,5.67
2023-02-01T00:24:05.511Z,5.67
2023-02-01T00:25:05.496Z,5.67
2023-02-01T00:26:05.472Z,5.70
2023-02-01T00:27:05.472Z,5.70
2023-02-01T00:28:05.458Z,5.70
2023-02-01T00:29:05.481Z,5.70
2023-02-01T00:30:05.433Z,5.67
2023-02-01T00:31:05.629Z,5.69
2023-02-01T00:32:05.536Z,5.70
2023-02-01T00:33:05.397Z,5.69
2023-02-01T00:34:05.415Z,5.72
2023-02-01T00:35:05.380Z,5.70
2023-02-01T00:36:05.366Z,5.70
2023-02-01T00:37:05.367Z,5.72
2023-02-01T00:38:05.347Z,5.70
2023-02-01T00:39:05.330Z,5.69
2023-02-01T00:40:05.326Z,5.69
2023-02-01T00:41:05.318Z,5.69
2023-02-01T00:42:05.309Z,5.70
2023-02-01T00:43:05.294Z,5.72
2023-02-01T00:44:05.290Z,5.73
2023-02-01T00:45:05.285Z,5.70
2023-02-01T00:46:05.444Z,5.67
2023-02-01T00:47:05.284Z,5.67
2023-02-01T00:48:05.261Z,5.67
2023-02-01T00:49:05.233Z,5.67
2023-02-01T00:50:05.315Z,5.67
2023-02-01T00:51:05.223Z,5.65
2023-02-01T00:52:05.205Z,5.61
2023-02-01T00:53:05.193Z,5.61
2023-02-01T00:54:05.193Z,5.61
2023-02-01T00:55:05.154Z,5.62
2023-02-01T00:56:05.155Z,5.62
2023-02-01T00:57:05.131Z,5.59
2023-02-01T00:58:05.125Z,5.59
2023-02-01T00:59:05.124Z,5.58
2023-02-01T01:00:05.110Z,5.57
2023-02-01T01:01:05.109Z,5.57
2023-02-01T01:02:05.115Z,5.58
2023-02-01T01:03:05.089Z,5.61
2023-02-01T01:04:05.053Z,5.61
2023-02-01T01:05:05.048Z,5.61
2023-02-01T01:06:05.035Z,5.62
2023-02-01T01:07:05.024Z,5.61
2023-02-01T01:08:05.016Z,5.59
2023-02-01T01:09:04.997Z,5.57
2023-02-01T01:10:04.994Z,5.52
2023-02-01T01:11:04.991Z,5.50
2023-02-01T01:12:04.965Z,5.52
2023-02-01T01:13:04.956Z,5.50
2023-02-01T01:14:04.951Z,5.49
2023-02-01T01:15:04.929Z,5.43
2023-02-01T01:16:04.971Z,5.46
2023-02-01T01:17:04.916Z,5.43
2023-02-01T01:18:04.910Z,5.43
2023-02-01T01:19:04.920Z,5.43
2023-02-01T01:20:04.886Z,5.43
2023-02-01T01:21:04.883Z,5.40
2023-02-01T01:22:04.876Z,5.42
2023-02-01T01:23:04.850Z,5.39
2023-02-01T01:24:04.834Z,5.42
2023-02-01T01:25:04.828Z,5.40
2023-02-01T01:26:06.723Z,5.39
2023-02-01T01:27:04.811Z,5.39
2023-02-01T01:28:04.792Z,5.40
2023-02-01T01:29:04.785Z,5.39
2023-02-01T01:30:04.781Z,5.40
2023-02-01T01:31:04.884Z,5.39
2023-02-01T01:32:04.759Z,5.40
2023-02-01T01:33:04.747Z,5.40
2023-02-01T01:34:04.725Z,5.40
2023-02-01T01:35:04.752Z,5.40
2023-02-01T01:36:04.711Z,5.39
2023-02-01T01:37:04.697Z,5.35
2023-02-01T01:38:04.703Z,5.35
2023-02-01T01:39:04.680Z,5.33
2023-02-01T01:40:04.663Z,5.32
2023-02-01T01:41:04.651Z,5.31
2023-02-01T01:42:04.645Z,5.32
2023-02-01T01:43:04.638Z,5.31
2023-02-01T01:44:04.627Z,5.31
2023-02-01T01:45:04.629Z,5.31
2023-02-01T01:46:04.594Z,5.31
2023-02-01T01:47:04.586Z,5.32
2023-02-01T01:48:04.572Z,5.33
2023-02-01T01:49:04.560Z,5.31
2023-02-01T01:50:04.548Z,5.32
2023-02-01T01:51:04.562Z,5.32
2023-02-01T01:52:04.539Z,5.32
2023-02-01T01:53:04.534Z,5.32
2023-02-01T01:54:04.512Z,5.31
2023-02-01T01:55:04.510Z,5.31
2023-02-01T01:56:04.483Z,5.32
2023-02-01T01:57:04.481Z,5.33
2023-02-01T01:58:04.467Z,5.35
2023-02-01T01:59:04.453Z,5.35
2023-02-01T02:00:04.450Z,5.35
2023-02-01T02:01:04.488Z,5.35
2023-02-01T02:02:04.475Z,5.36
2023-02-01T02:03:04.405Z,5.38
2023-02-01T02:04:04.400Z,5.39
2023-02-01T02:05:04.396Z,5.39
2023-02-01T02:06:04.370Z,5.39
2023-02-01T02:07:04.394Z,5.39
2023-02-01T02:08:04.351Z,5.38
2023-02-01T02:09:06.923Z,5.38
2023-02-01T02:10:04.324Z,5.38
2023-02-01T02:11:04.325Z,5.39
2023-02-01T02:12:04.313Z,5.40
2023-02-01T02:13:04.303Z,5.40
2023-02-01T02:14:04.340Z,5.40
2023-02-01T02:15:04.268Z,5.42
2023-02-01T02:16:04.368Z,5.43
2023-02-01T02:17:04.245Z,5.42
2023-02-01T02:18:04.234Z,5.46
2023-02-01T02:19:04.224Z,5.43
2023-02-01T02:20:04.213Z,5.43
2023-02-01T02:21:04.199Z,5.42
2023-02-01T02:22:04.210Z,5.42
2023-02-01T02:23:04.215Z,5.42
2023-02-01T02:24:04.169Z,5.40
2023-02-01T02:25:04.176Z,5.42
2023-02-01T02:26:04.145Z,5.43
2023-02-01T02:27:04.139Z,5.43
2023-02-01T02:28:04.131Z,5.43
2023-02-01T02:29:04.132Z,5.43
2023-02-01T02:30:04.099Z,5.47
2023-02-01T02:31:04.126Z,5.47
2023-02-01T02:32:04.084Z,5.47
2023-02-01T02:33:04.068Z,5.47
2023-02-01T02:34:04.060Z,5.47
2023-02-01T02:35:04.045Z,5.47
2023-02-01T02:36:04.042Z,5.47
2023-02-01T02:37:04.029Z,5.49
2023-02-01T02:38:04.017Z,5.47
2023-02-01T02:39:04.027Z,5.43
2023-02-01T02:40:03.986Z,5.43
2023-02-01T02:41:03.975Z,5.43
2023-02-01T02:42:03.969Z,5.42
2023-02-01T02:43:03.960Z,5.40
2023-02-01T02:44:03.945Z,5.40
2023-02-01T02:45:03.944Z,5.40
2023-02-01T02:46:04.003Z,5.38
2023-02-01T02:47:03.911Z,5.40
2023-02-01T02:48:03.901Z,5.43
2023-02-01T02:49:03.885Z,5.46
2023-02-01T02:50:03.874Z,5.43
2023-02-01T02:51:03.864Z,5.43
2023-02-01T02:52:03.856Z,5.43
2023-02-01T02:53:03.845Z,5.46
2023-02-01T02:54:03.838Z,5.47
2023-02-01T02:55:03.861Z,5.46
2023-02-01T02:56:03.813Z,5.47
2023-02-01T02:57:03.808Z,5.49
2023-02-01T02:58:03.788Z,5.46
2023-02-01T02:59:03.780Z,5.46
2023-02-01T03:00:03.789Z,5.43
2023-02-01T03:01:03.851Z,5.42
2023-02-01T03:02:03.748Z,5.40
2023-02-01T03:03:03.763Z,5.42
2023-02-01T03:04:03.735Z,5.42
2023-02-01T03:05:03.714Z,5.46
2023-02-01T03:06:03.707Z,5.42
2023-02-01T03:07:03.685Z,5.46
2023-02-01T03:08:03.680Z,5.46
2023-02-01T03:09:03.667Z,5.46
2023-02-01T03:10:03.656Z,5.47
2023-02-01T03:11:03.675Z,5.46
2023-02-01T03:12:03.638Z,5.49
2023-02-01T03:13:03.629Z,5.43
2023-02-01T03:14:03.622Z,5.43
2023-02-01T03:15:03.595Z,5.46
2023-02-01T03:16:03.598Z,5.47
2023-02-01T03:17:03.577Z,5.49
2023-02-01T03:18:03.583Z,5.52
2023-02-01T03:19:03.554Z,5.54
2023-02-01T03:20:03.537Z,5.55
2023-02-01T03:21:03.527Z,5.55
2023-02-01T03:22:03.525Z,5.55
2023-02-01T03:23:03.512Z,5.54
2023-02-01T03:24:03.502Z,5.55
2023-02-01T03:25:03.510Z,5.55
2023-02-01T03:26:03.477Z,5.54
2023-02-01T03:27:03.507Z,5.54
2023-02-01T03:28:03.447Z,5.57
2023-02-01T03:29:03.444Z,5.57
2023-02-01T03:30:03.437Z,5.55
2023-02-01T03:31:03.489Z,5.57
2023-02-01T03:32:03.540Z,5.57
2023-02-01T03:33:03.397Z,5.57
2023-02-01T03:34:03.385Z,5.58
2023-02-01T03:35:03.375Z,5.61
2023-02-01T03:36:03.372Z,5.61
2023-02-01T03:37:03.350Z,5.62
2023-02-01T03:38:03.338Z,5.62
2023-02-01T03:39:03.337Z,5.62
2023-02-01T03:40:03.322Z,5.61
2023-02-01T03:41:03.310Z,5.62
2023-02-01T03:42:03.300Z,5.61
2023-02-01T03:43:03.308Z,5.62
2023-02-01T03:44:03.292Z,5.62
2023-02-01T03:45:03.258Z,5.62
2023-02-01T03:46:03.317Z,5.62
2023-02-01T03:47:03.241Z,5.62
2023-02-01T03:48:03.229Z,5.66
2023-02-01T03:49:03.225Z,5.66
2023-02-01T03:50:03.202Z,5.65
2023-02-01T03:51:03.201Z,5.66
2023-02-01T03:52:03.270Z,5.61
2023-02-01T03:53:03.169Z,5.61
2023-02-01T03:54:03.183Z,5.61
2023-02-01T03:55:03.149Z,5.61
2023-02-01T03:56:03.134Z,5.61
2023-02-01T03:57:03.127Z,5.61
2023-02-01T03:58:03.115Z,5.59
2023-02-01T03:59:03.130Z,5.61
2023-02-01T04:00:03.103Z,5.62
2023-02-01T04:01:03.148Z,5.66
2023-02-01T04:02:03.131Z,5.66
2023-02-01T04:03:03.063Z,5.66
2023-02-01T04:04:03.056Z,5.67
2023-02-01T04:05:03.037Z,5.67
2023-02-01T04:06:03.035Z,5.67
2023-02-01T04:07:03.030Z,5.69
2023-02-01T04:08:03.016Z,5.67
2023-02-01T04:09:03.015Z,5.69
2023-02-01T04:10:02.983Z,5.67
2023-02-01T04:11:02.976Z,5.66
2023-02-01T04:12:02.959Z,5.69
2023-02-01T04:13:02.949Z,5.69
2023-02-01T04:14:02.971Z,5.72
2023-02-01T04:15:02.986Z,5.72
2023-02-01T04:16:02.927Z,5.73
2023-02-01T04:17:02.917Z,5.73
2023-02-01T04:18:02.898Z,5.76
2023-02-01T04:19:02.899Z,5.76
2023-02-01T04:20:02.898Z,5.76
2023-02-01T04:21:02.883Z,5.76
2023-02-01T04:22:02.867Z,5.77
2023-02-01T04:23:02.847Z,5.80
2023-02-01T04:24:02.846Z,5.80
2023-02-01T04:25:02.838Z,5.80
2023-02-01T04:26:02.808Z,5.84
2023-02-01T04:27:02.809Z,5.84
2023-02-01T04:28:02.792Z,5.84
2023-02-01T04:29:02.779Z,5.85
2023-02-01T04:30:02.765Z,5.85
2023-02-01T04:31:02.939Z,5.85
2023-02-01T04:32:02.745Z,5.88
2023-02-01T04:33:02.739Z,5.88
2023-02-01T04:34:02.727Z,5.90
2023-02-01T04:35:02.719Z,5.91
2023-02-01T04:36:02.703Z,5.93
2023-02-01T04:37:02.700Z,5.93
2023-02-01T04:38:02.684Z,5.91
2023-02-01T04:39:02.663Z,5.93
2023-02-01T04:40:02.658Z,5.95
2023-02-01T04:41:02.648Z,5.95
2023-02-01T04:42:02.644Z,5.93
2023-02-01T04:43:02.650Z,5.93
2023-02-01T04:44:02.623Z,5.94
2023-02-01T04:45:02.614Z,5.95
2023-02-01T04:46:02.622Z,5.98
2023-02-01T04:47:02.618Z,5.98
2023-02-01T04:48:02.568Z,6.00
2023-02-01T04:49:02.564Z,6.02
2023-02-01T04:50:02.556Z,6.03
2023-02-01T04:51:02.537Z,6.03
2023-02-01T04:52:02.526Z,6.03
2023-02-01T04:53:02.509Z,6.05
2023-02-01T04:54:02.498Z,6.06
2023-02-01T04:55:02.501Z,6.08
2023-02-01T04:56:02.484Z,6.09
2023-02-01T04:57:02.473Z,6.11
2023-02-01T04:58:02.459Z,6.12
2023-02-01T04:59:02.439Z,6.12
2023-02-01T05:00:02.429Z,6.15
2023-02-01T05:01:02.455Z,6.15
2023-02-01T05:02:02.425Z,6.15
2023-02-01T05:03:02.426Z,6.16
2023-02-01T05:04:02.385Z,6.16
2023-02-01T05:05:02.453Z,6.18
2023-02-01T05:06:02.370Z,6.19
2023-02-01T05:07:02.368Z,6.21
2023-02-01T05:08:02.354Z,6.19
2023-02-01T05:09:02.337Z,6.18
2023-02-01T05:10:02.327Z,6.19
2023-02-01T05:11:02.323Z,6.19
2023-02-01T05:12:02.322Z,6.21
2023-02-01T05:13:02.303Z,6.19
2023-02-01T05:14:02.746Z,6.19
2023-02-01T05:15:02.269Z,6.18
2023-02-01T05:16:02.330Z,6.18
2023-02-01T05:17:02.260Z,6.19
2023-02-01T05:18:02.234Z,6.19
2023-02-01T05:19:02.258Z,6.21
2023-02-01T05:20:02.244Z,6.19
2023-02-01T05:21:02.197Z,6.21
2023-02-01T05:22:02.200Z,6.23
2023-02-01T05:23:02.177Z,6.23
2023-02-01T05:24:02.167Z,6.23
2023-02-01T05:25:02.167Z,6.26
2023-02-01T05:26:02.176Z,6.27
2023-02-01T05:27:02.146Z,6.29
2023-02-01T05:28:02.140Z,6.29
2023-02-01T05:29:02.115Z,6.30
2023-02-01T05:30:02.108Z,6.30
2023-02-01T05:31:02.163Z,6.31
2023-02-01T05:32:19.523Z,6.33
2023-02-01T05:33:02.070Z,6.31
2023-02-01T05:34:02.068Z,6.33
2023-02-01T05:35:02.068Z,6.33
2023-02-01T05:36:02.041Z,6.33
2023-02-01T05:37:02.031Z,6.34
2023-02-01T05:38:02.017Z,6.33
2023-02-01T05:39:02.017Z,6.33
2023-02-01T05:40:02.002Z,6.34
2023-02-01T05:41:01.989Z,6.36
2023-02-01T05:42:01.966Z,6.37
2023-02-01T05:43:01.959Z,6.39
2023-02-01T05:44:01.959Z,6.39
2023-02-01T05:45:01.938Z,6.37
2023-02-01T05:46:01.979Z,6.36
2023-02-01T05:47:01.945Z,6.39
2023-02-01T05:48:01.928Z,6.39
2023-02-01T05:49:01.938Z,6.39
2023-02-01T05:50:01.940Z,6.39
2023-02-01T05:51:01.896Z,6.39
2023-02-01T05:52:01.866Z,6.41
2023-02-01T05:53:01.847Z,6.37
2023-02-01T05:54:01.843Z,6.36
2023-02-01T05:55:01.836Z,6.36
2023-02-01T05:56:01.815Z,6.37
2023-02-01T05:57:01.806Z,6.39
2023-02-01T05:58:01.795Z,6.39
2023-02-01T05:59:02.857Z,6.39
2023-02-01T06:00:01.771Z,6.41
2023-02-01T06:01:01.767Z,6.42
2023-02-01T06:02:01.757Z,6.42
2023-02-01T06:03:01.783Z,6.42
2023-02-01T06:04:01.799Z,6.44
2023-02-01T06:05:01.721Z,6.42
2023-02-01T06:06:01.713Z,6.46
2023-02-01T06:07:01.725Z,6.44
2023-02-01T06:08:01.692Z,6.42
2023-02-01T06:09:01.680Z,6.44
2023-02-01T06:10:01.682Z,6.44
2023-02-01T06:11:01.651Z,6.41
2023-02-01T06:12:01.651Z,6.42
2023-02-01T06:13:01.634Z,6.44
2023-02-01T06:14:01.625Z,6.44
2023-02-01T06:15:01.616Z,6.44
2023-02-01T06:16:01.678Z,6.41
2023-02-01T06:17:01.596Z,6.36
2023-02-01T06:18:01.577Z,6.34
2023-02-01T06:19:01.590Z,6.36
2023-02-01T06:20:01.554Z,6.37
2023-02-01T06:21:01.600Z,6.37
2023-02-01T06:22:01.582Z,6.39
2023-02-01T06:23:01.549Z,6.39
2023-02-01T06:24:01.538Z,6.41
2023-02-01T06:25:01.539Z,6.41
2023-02-01T06:26:01.499Z,6.41
2023-02-01T06:27:01.485Z,6.41
2023-02-01T06:28:01.475Z,6.42
2023-02-01T06:29:01.459Z,6.44
2023-02-01T06:30:01.496Z,6.44
2023-02-01T06:31:01.520Z,6.44
2023-02-01T06:32:01.556Z,6.44
2023-02-01T06:33:03.416Z,6.44
2023-02-01T06:34:01.401Z,6.42
2023-02-01T06:35:01.407Z,6.42
2023-02-01T06:36:01.388Z,6.41
2023-02-01T06:37:01.375Z,6.42
2023-02-01T06:38:01.365Z,6.42
2023-02-01T06:39:01.394Z,6.42
2023-02-01T06:40:01.340Z,6.42
2023-02-01T06:41:01.342Z,6.39
2023-02-01T06:42:01.315Z,6.39
2023-02-01T06:43:01.306Z,6.37
2023-02-01T06:44:01.296Z,6.37
2023-02-01T06:45:01.284Z,6.34
2023-02-01T06:46:01.281Z,6.34
2023-02-01T06:47:01.292Z,6.34
2023-02-01T06:48:01.262Z,6.34
2023-02-01T06:49:01.258Z,6.34
2023-02-01T06:50:01.240Z,6.34
2023-02-01T06:51:01.217Z,6.34
2023-02-01T06:52:01.208Z,6.31
2023-02-01T06:53:01.207Z,6.33
2023-02-01T06:54:01.207Z,6.31
2023-02-01T06:55:01.221Z,6.33
2023-02-01T06:56:01.198Z,6.34
2023-02-01T06:57:01.164Z,6.34
2023-02-01T06:58:01.155Z,6.33
2023-02-01T06:59:01.136Z,6.36
2023-02-01T07:00:01.137Z,6.36
2023-02-01T07:01:01.184Z,6.37
2023-02-01T07:02:01.260Z,6.36
2023-02-01T07:03:03.089Z,6.37
2023-02-01T07:04:01.088Z,6.39
2023-02-01T07:05:01.072Z,6.39
2023-02-01T07:06:01.054Z,6.37
2023-02-01T07:07:01.048Z,6.41
2023-02-01T07:08:01.052Z,6.41
2023-02-01T07:09:01.027Z,6.42
2023-02-01T07:10:03.014Z,6.44
2023-02-01T07:11:01.028Z,6.44
2023-02-01T07:12:01.015Z,6.46
2023-02-01T07:13:00.994Z,6.45
2023-02-01T07:14:00.983Z,6.44
2023-02-01T07:15:00.952Z,6.42
2023-02-01T07:16:01.001Z,6.45
2023-02-01T07:17:00.937Z,6.46
2023-02-01T07:18:00.932Z,6.45
2023-02-01T07:19:00.921Z,6.45
2023-02-01T07:20:00.917Z,6.46
2023-02-01T07:21:00.908Z,6.45
2023-02-01T07:22:00.893Z,6.46
2023-02-01T07:23:00.876Z,6.44
2023-02-01T07:24:00.867Z,6.39
2023-02-01T07:25:00.858Z,6.36
2023-02-01T07:26:00.842Z,6.41
2023-02-01T07:27:00.877Z,6.41
2023-02-01T07:28:00.816Z,6.42
2023-02-01T07:29:00.820Z,6.42
2023-02-01T07:30:00.810Z,6.44
2023-02-01T07:31:00.828Z,6.44
2023-02-01T07:32:00.784Z,6.44
2023-02-01T07:33:00.764Z,6.45
2023-02-01T07:34:00.749Z,6.48
2023-02-01T07:35:00.739Z,6.49
2023-02-01T07:36:00.733Z,6.54
2023-02-01T07:37:00.738Z,6.55
2023-02-01T07:38:00.717Z,6.55
2023-02-01T07:39:00.697Z,6.56
2023-02-01T07:40:00.722Z,6.62
2023-02-01T07:41:00.685Z,6.62
2023-02-01T07:42:00.660Z,6.64
2023-02-01T07:43:00.679Z,6.66
2023-02-01T07:44:00.654Z,6.66
2023-02-01T07:45:14.751Z,6.66
2023-02-01T07:46:00.682Z,6.66
2023-02-01T07:47:00.618Z,6.64
2023-02-01T07:48:00.598Z,6.64
2023-02-01T07:49:00.610Z,6.63
2023-02-01T07:50:00.584Z,6.62
2023-02-01T07:51:00.582Z,6.56
2023-02-01T07:52:00.559Z,6.55
2023-02-01T07:53:00.545Z,6.51
2023-02-01T07:54:00.539Z,6.49
2023-02-01T07:55:00.528Z,6.48
2023-02-01T07:56:00.544Z,6.49
2023-02-01T07:57:00.497Z,6.44
2023-02-01T07:58:00.494Z,6.44
2023-02-01T07:59:00.534Z,6.37
2023-02-01T08:00:00.467Z,6.36
2023-02-01T08:01:00.536Z,6.33
2023-02-01T08:02:00.499Z,6.21
2023-02-01T08:03:00.432Z,6.19
2023-02-01T08:04:00.444Z,6.23
2023-02-01T08:05:00.415Z,6.21
2023-02-01T08:06:00.416Z,6.18
2023-02-01T08:07:00.397Z,6.18
2023-02-01T08:08:00.381Z,6.16
2023-02-01T08:09:00.380Z,6.16
2023-02-01T08:10:00.373Z,6.15
2023-02-01T08:11:00.371Z,6.13
2023-02-01T08:12:00.337Z,6.13
2023-02-01T08:13:00.333Z,6.15
2023-02-01T08:14:00.430Z,6.13
2023-02-01T08:15:00.343Z,6.13
2023-02-01T08:16:00.319Z,6.13
2023-02-01T08:17:02.289Z,6.13
2023-02-01T08:18:00.268Z,6.12
2023-02-01T08:19:00.263Z,6.09
2023-02-01T08:20:00.251Z,6.06
2023-02-01T08:21:00.244Z,6.05
2023-02-01T08:22:00.261Z,6.03
2023-02-01T08:23:00.218Z,6.05
2023-02-01T08:24:00.208Z,6.05
2023-02-01T08:25:00.190Z,6.06
2023-02-01T08:26:00.184Z,6.03
2023-02-01T08:27:00.184Z,6.03
2023-02-01T08:28:00.163Z,5.98
2023-02-01T08:29:00.159Z,5.98
2023-02-01T08:30:00.263Z,5.98
2023-02-01T08:31:00.225Z,5.95
2023-02-01T08:32:00.282Z,5.90
2023-02-01T08:33:00.116Z,5.90
2023-02-01T08:34:00.174Z,5.84
2023-02-01T08:35:00.119Z,5.87
2023-02-01T08:36:00.103Z,5.88
2023-02-01T08:37:00.123Z,5.93
2023-02-01T08:38:00.087Z,5.93
2023-02-01T08:39:00.050Z,5.94
2023-02-01T08:40:00.062Z,5.90
2023-02-01T08:41:00.024Z,5.88
2023-02-01T08:42:00.009Z,5.88
2023-02-01T08:42:59.991Z,5.88
2023-02-01T08:43:59.981Z,5.88
2023-02-01T08:44:59.975Z,5.88
2023-02-01T08:45:59.985Z,5.87
2023-02-01T08:46:59.977Z,5.88
2023-02-01T08:47:59.937Z,5.90
2023-02-01T08:48:59.928Z,5.91
2023-02-01T08:49:59.914Z,5.93
2023-02-01T08:50:59.913Z,5.94
2023-02-01T08:52:04.107Z,5.90
2023-02-01T08:52:59.882Z,5.90
2023-02-01T08:53:59.885Z,5.88
2023-02-01T08:54:59.863Z,5.79
2023-02-01T08:55:59.853Z,5.76
2023-02-01T08:57:01.944Z,5.79
2023-02-01T08:57:59.832Z,5.80
2023-02-01T08:58:59.827Z,5.80
2023-02-01T08:59:59.816Z,5.80
2023-02-01T09:00:59.821Z,5.82
2023-02-01T09:01:59.789Z,5.82
2023-02-01T09:02:59.813Z,5.87
2023-02-01T09:03:59.861Z,5.88
2023-02-01T09:04:59.750Z,5.82
2023-02-01T09:05:59.741Z,5.84
2023-02-01T09:06:59.734Z,5.87
2023-02-01T09:07:59.723Z,5.85
2023-02-01T09:08:59.709Z,5.88
2023-02-01T09:09:59.694Z,5.90
2023-02-01T09:11:02.159Z,5.85
2023-02-01T09:11:59.684Z,5.85
2023-02-01T09:12:59.670Z,5.85
2023-02-01T09:13:59.660Z,5.87
2023-02-01T09:14:59.755Z,5.88
2023-02-01T09:15:59.763Z,5.87
2023-02-01T09:16:59.631Z,5.84
2023-02-01T09:17:59.608Z,5.87
2023-02-01T09:19:23.923Z,5.90
2023-02-01T09:19:59.583Z,5.85
2023-02-01T09:20:59.587Z,5.85
2023-02-01T09:21:59.565Z,5.88
2023-02-01T09:22:59.561Z,5.85
2023-02-01T09:23:59.552Z,5.91
2023-02-01T09:24:59.567Z,5.98
2023-02-01T09:25:59.519Z,6.02
2023-02-01T09:26:59.579Z,6.03
2023-02-01T09:27:59.508Z,6.06
2023-02-01T09:28:59.487Z,6.08
2023-02-01T09:29:59.483Z,6.12
2023-02-01T09:30:59.596Z,6.13
2023-02-01T09:32:03.988Z,6.15
2023-02-01T09:32:59.443Z,6.16
2023-02-01T09:33:59.472Z,6.18
2023-02-01T09:34:59.465Z,6.18
2023-02-01T09:35:59.419Z,6.13
2023-02-01T09:36:59.397Z,6.13
2023-02-01T09:37:59.393Z,6.19
2023-02-01T09:38:59.398Z,6.21
2023-02-01T09:39:59.372Z,6.21
2023-02-01T09:40:59.361Z,6.23
2023-02-01T09:41:59.361Z,6.26
2023-02-01T09:42:59.341Z,6.23
2023-02-01T09:43:59.322Z,6.19
2023-02-01T09:44:59.319Z,6.19
2023-02-01T09:45:59.327Z,6.16
2023-02-01T09:46:59.290Z,6.09
2023-02-01T09:47:59.287Z,6.06
2023-02-01T09:48:59.272Z,6.05
2023-02-01T09:49:59.267Z,6.03
2023-02-01T09:50:59.275Z,6.03
2023-02-01T09:51:59.251Z,6.03
2023-02-01T09:52:59.230Z,6.05
2023-02-01T09:53:59.220Z,6.06
2023-02-01T09:54:59.201Z,6.09
2023-02-01T09:55:59.191Z,6.13
2023-02-01T09:56:59.183Z,6.19
2023-02-01T09:57:59.166Z,6.23
2023-02-01T09:58:59.166Z,6.27
2023-02-01T09:59:59.383Z,6.27
2023-02-01T10:00:59.145Z,6.27
2023-02-01T10:01:59.132Z,6.27
2023-02-01T10:02:59.141Z,6.27
2023-02-01T10:03:59.111Z,6.30
2023-02-01T10:04:59.101Z,6.24
2023-02-01T10:05:59.091Z,6.15
2023-02-01T10:06:59.094Z,6.15
2023-02-01T10:07:59.064Z,6.18
2023-02-01T10:08:59.067Z,6.18
2023-02-01T10:09:59.050Z,6.19
2023-02-01T10:11:59.022Z,6.23
2023-02-01T10:12:59.013Z,6.24
2023-02-01T10:13:58.996Z,6.19
2023-02-01T10:14:59.047Z,6.16
2023-02-01T10:15:59.056Z,6.16
2023-02-01T10:16:59.062Z,6.19
2023-02-01T10:17:59.082Z,6.19
2023-02-01T10:18:58.950Z,6.21
2023-02-01T10:19:58.947Z,6.21
2023-02-01T10:20:58.918Z,6.24
2023-02-01T10:21:58.911Z,6.24
2023-02-01T10:23:26.897Z,6.27
2023-02-01T10:24:01.134Z,6.26
2023-02-01T10:24:58.888Z,6.29
2023-02-01T10:25:58.871Z,6.27
2023-02-01T10:26:58.936Z,6.30
2023-02-01T10:27:58.846Z,6.31
2023-02-01T10:28:58.834Z,6.30
2023-02-01T10:29:58.821Z,6.31
2023-02-01T10:30:58.945Z,6.33
2023-02-01T10:31:58.868Z,6.37
2023-02-01T10:32:58.791Z,6.34
2023-02-01T10:33:58.786Z,6.36
2023-02-01T10:34:58.779Z,6.41
2023-02-01T10:35:58.767Z,6.42
2023-02-01T10:36:58.759Z,6.44
2023-02-01T10:37:58.731Z,6.45
2023-02-01T10:38:58.755Z,6.51
2023-02-01T10:39:58.737Z,6.56
2023-02-01T10:40:58.728Z,6.66
2023-02-01T10:41:58.688Z,6.70
2023-02-01T10:42:58.688Z,6.69
2023-02-01T10:43:58.665Z,6.70
2023-02-01T10:44:58.670Z,6.69
2023-02-01T10:45:58.684Z,6.67
2023-02-01T10:46:58.634Z,6.66
2023-02-01T10:47:58.647Z,6.64
2023-02-01T10:48:58.615Z,6.64
2023-02-01T10:49:58.611Z,6.59
2023-02-01T10:50:58.598Z,6.54
2023-02-01T10:51:58.584Z,6.51
2023-02-01T10:52:58.587Z,6.46
2023-02-01T10:53:58.567Z,6.42
2023-02-01T10:54:58.585Z,6.39
2023-02-01T10:55:58.540Z,6.37
2023-02-01T10:57:00.455Z,6.33
2023-02-01T10:57:58.525Z,6.33
2023-02-01T10:58:58.502Z,6.27
2023-02-01T10:59:58.507Z,6.31
2023-02-01T11:00:58.486Z,6.31
2023-02-01T11:01:59.627Z,6.33
2023-02-01T11:02:58.527Z,6.30
2023-02-01T11:03:58.451Z,6.33
2023-02-01T11:04:58.444Z,6.34
2023-02-01T11:05:58.426Z,6.36
2023-02-01T11:06:58.412Z,6.31
2023-02-01T11:07:58.411Z,6.37
2023-02-01T11:08:58.403Z,6.55
2023-02-01T11:09:58.382Z,6.67
2023-02-01T11:10:58.408Z,6.90
2023-02-01T11:11:58.367Z,6.99
2023-02-01T11:12:58.352Z,7.03
2023-02-01T11:13:58.357Z,7.03
2023-02-01T11:14:58.445Z,7.00
2023-02-01T11:15:58.371Z,6.99
2023-02-01T11:16:58.311Z,6.92
2023-02-01T11:17:58.300Z,6.96
2023-02-01T11:18:58.290Z,6.91
2023-02-01T11:19:58.310Z,6.96
2023-02-01T11:20:58.275Z,6.99
2023-02-01T11:21:58.261Z,6.97
2023-02-01T11:22:58.256Z,7.13
2023-02-01T11:23:58.241Z,7.22
2023-02-01T11:24:58.222Z,7.28
2023-02-01T11:25:58.209Z,7.34
2023-02-01T11:26:58.232Z,7.37
2023-02-01T11:27:58.192Z,7.44
2023-02-01T11:28:58.219Z,7.49
2023-02-01T11:29:58.171Z,7.80
2023-02-01T11:30:58.345Z,7.95
2023-02-01T11:31:58.149Z,8.04
2023-02-01T11:32:58.128Z,8.16
2023-02-01T11:33:58.139Z,8.30
2023-02-01T11:34:58.120Z,8.74
2023-02-01T11:35:58.095Z,9.10
2023-02-01T11:36:58.082Z,9.32
2023-02-01T11:37:58.077Z,9.44
2023-02-01T11:38:58.061Z,9.41
2023-02-01T11:39:58.057Z,9.33
2023-02-01T11:40:58.052Z,9.31
2023-02-01T11:41:58.038Z,9.14
2023-02-01T11:42:58.093Z,9.01
2023-02-01T11:43:58.001Z,8.93
2023-02-01T11:44:57.990Z,8.86
2023-02-01T11:45:57.979Z,8.72
2023-02-01T11:46:57.981Z,8.71
2023-02-01T11:47:57.963Z,8.67
2023-02-01T11:48:57.956Z,8.65
2023-02-01T11:49:57.931Z,8.57
2023-02-01T11:50:57.927Z,8.50
2023-02-01T11:51:57.917Z,8.53
2023-02-01T11:52:57.997Z,8.52
2023-02-01T11:53:57.906Z,8.49
2023-02-01T11:54:57.883Z,8.53
2023-02-01T11:55:57.866Z,8.65
2023-02-01T11:56:57.859Z,8.71
2023-02-01T11:57:57.858Z,8.75
2023-02-01T11:58:57.860Z,8.85
2023-02-01T11:59:57.832Z,8.90
2023-02-01T12:00:57.822Z,8.90
2023-02-01T12:01:57.888Z,8.88
2023-02-01T12:02:57.838Z,8.86
2023-02-01T12:03:57.778Z,8.85
2023-02-01T12:04:57.761Z,8.88
2023-02-01T12:05:57.752Z,8.90
2023-02-01T12:06:57.770Z,8.88
2023-02-01T12:07:57.740Z,9.04
2023-02-01T12:08:57.730Z,9.17
2023-02-01T12:09:57.715Z,9.18
2023-02-01T12:10:57.701Z,9.25
2023-02-01T12:11:57.692Z,9.31
2023-02-01T12:12:57.677Z,9.40
2023-02-01T12:13:57.666Z,9.64
2023-02-01T12:14:57.684Z,9.72
2023-02-01T12:15:57.637Z,9.71
2023-02-01T12:16:57.636Z,9.71
2023-02-01T12:17:57.617Z,9.66
2023-02-01T12:18:57.605Z,9.64
2023-02-01T12:19:57.634Z,9.61
2023-02-01T12:20:57.596Z,9.56
2023-02-01T12:21:57.595Z,9.49
2023-02-01T12:22:57.570Z,9.40
2023-02-01T12:23:57.555Z,9.35
2023-02-01T12:24:57.538Z,9.31
2023-02-01T12:25:57.535Z,9.18
2023-02-01T12:26:57.568Z,9.07
2023-02-01T12:27:57.505Z,8.99
2023-02-01T12:28:57.493Z,8.93
2023-02-01T12:29:57.494Z,8.86
2023-02-01T12:30:57.587Z,8.88
2023-02-01T12:31:57.494Z,8.83
2023-02-01T12:32:57.454Z,8.74
2023-02-01T12:33:57.454Z,8.68
2023-02-01T12:34:57.437Z,8.65
2023-02-01T12:35:57.422Z,8.68
2023-02-01T12:36:57.408Z,8.62
2023-02-01T12:37:57.471Z,8.62
2023-02-01T12:38:57.391Z,8.57
2023-02-01T12:39:57.389Z,8.53
2023-02-01T12:40:57.372Z,8.53
2023-02-01T12:41:57.358Z,8.52
2023-02-01T12:42:57.341Z,8.47
2023-02-01T12:43:57.330Z,8.44
2023-02-01T12:44:57.316Z,8.44
2023-02-01T12:45:57.336Z,8.42
2023-02-01T12:46:57.398Z,8.34
2023-02-01T12:47:57.290Z,8.38
2023-02-01T12:48:57.286Z,8.41
2023-02-01T12:49:57.274Z,8.46
2023-02-01T12:50:57.250Z,8.49
2023-02-01T12:51:57.245Z,8.52
2023-02-01T12:52:57.229Z,8.53
2023-02-01T12:53:57.218Z,8.53
2023-02-01T12:54:57.232Z,8.55
2023-02-01T12:55:57.200Z,8.57
2023-02-01T12:56:57.194Z,8.56
2023-02-01T12:57:57.179Z,8.57
2023-02-01T12:58:57.164Z,8.62
2023-02-01T12:59:57.154Z,8.62
2023-02-01T13:00:57.159Z,8.56
2023-02-01T13:01:57.167Z,8.55
2023-02-01T13:02:57.184Z,8.49
2023-02-01T13:03:57.112Z,8.46
2023-02-01T13:04:57.100Z,8.47
2023-02-01T13:05:57.093Z,8.46
2023-02-01T13:06:57.072Z,8.37
2023-02-01T13:07:57.069Z,8.33
2023-02-01T13:08:57.053Z,8.33
2023-02-01T13:09:57.039Z,8.34
2023-02-01T13:10:57.036Z,8.33
2023-02-01T13:11:57.038Z,8.39
2023-02-01T13:12:57.015Z,8.31
2023-02-01T13:13:56.999Z,8.30
2023-02-01T13:14:56.982Z,8.33
2023-02-01T13:15:56.985Z,8.38
2023-02-01T13:16:57.053Z,8.34
2023-02-01T13:17:56.950Z,8.33
2023-02-01T13:18:56.961Z,8.33